地図

経路データ

SID SEASON NUMBER BASIN SUBBASIN NAME ISO_TIME NATURE LAT LON WMO_WIND WMO_PRES WMO_AGENCY TRACK_TYPE DIST2LAND LANDFALL IFLAG USA_AGENCY USA_ATCF_ID USA_LAT USA_LON USA_RECORD USA_STATUS USA_WIND USA_PRES USA_SSHS USA_R34_NE USA_R34_SE USA_R34_SW USA_R34_NW USA_R50_NE USA_R50_SE USA_R50_SW USA_R50_NW USA_R64_NE USA_R64_SE USA_R64_SW USA_R64_NW USA_POCI USA_ROCI USA_RMW USA_EYE TOKYO_LAT TOKYO_LON TOKYO_GRADE TOKYO_WIND TOKYO_PRES TOKYO_R50_DIR TOKYO_R50_LONG TOKYO_R50_SHORT TOKYO_R30_DIR TOKYO_R30_LONG TOKYO_R30_SHORT TOKYO_LAND CMA_LAT CMA_LON CMA_CAT CMA_WIND CMA_PRES HKO_LAT HKO_LON HKO_CAT HKO_WIND HKO_PRES NEWDELHI_LAT NEWDELHI_LON NEWDELHI_GRADE NEWDELHI_WIND NEWDELHI_PRES NEWDELHI_CI NEWDELHI_DP NEWDELHI_POCI REUNION_LAT REUNION_LON REUNION_TYPE REUNION_WIND REUNION_PRES REUNION_TNUM REUNION_CI REUNION_RMW REUNION_R34_NE REUNION_R34_SE REUNION_R34_SW REUNION_R34_NW REUNION_R50_NE REUNION_R50_SE REUNION_R50_SW REUNION_R50_NW REUNION_R64_NE REUNION_R64_SE REUNION_R64_SW REUNION_R64_NW BOM_LAT BOM_LON BOM_TYPE BOM_WIND BOM_PRES BOM_TNUM BOM_CI BOM_RMW BOM_R34_NE BOM_R34_SE BOM_R34_SW BOM_R34_NW BOM_R50_NE BOM_R50_SE BOM_R50_SW BOM_R50_NW BOM_R64_NE BOM_R64_SE BOM_R64_SW BOM_R64_NW BOM_ROCI BOM_POCI BOM_EYE BOM_POS_METHOD BOM_PRES_METHOD NADI_LAT NADI_LON NADI_CAT NADI_WIND NADI_PRES WELLINGTON_LAT WELLINGTON_LON WELLINGTON_WIND WELLINGTON_PRES DS824_LAT DS824_LON DS824_STAGE DS824_WIND DS824_PRES TD9636_LAT TD9636_LON TD9636_STAGE TD9636_WIND TD9636_PRES TD9635_LAT TD9635_LON TD9635_WIND TD9635_PRES TD9635_ROCI NEUMANN_LAT NEUMANN_LON NEUMANN_CLASS NEUMANN_WIND NEUMANN_PRES MLC_LAT MLC_LON MLC_CLASS MLC_WIND MLC_PRES USA_GUST BOM_GUST BOM_GUST_PER REUNION_GUST REUNION_GUST_PER USA_SEAHGT USA_SEARAD_NE USA_SEARAD_SE USA_SEARAD_SW USA_SEARAD_NW STORM_SPEED STORM_DIR
1997246N11316 1997 77 NA NA ERIKA 1997-09-03 06:00:00 TS 10.9000 -44.1000 30 1006 hurdat_atl main 1084 1053 O_____________ hurdat_atl AL071997 10.9000 -44.1000 TD 30 1006 -1 14 293
1997246N11316 1997 77 NA NA ERIKA 1997-09-03 09:00:00 TS 11.1802 -44.7749 main 1053 1027 P_____________ AL071997 11.1802 -44.7749 TD 30 1005 -1 15 294
1997246N11316 1997 77 NA NA ERIKA 1997-09-03 12:00:00 TS 11.5000 -45.5000 30 1005 hurdat_atl main 1029 1010 O_____________ hurdat_atl AL071997 11.5000 -45.5000 TD 30 1005 -1 17 295
1997246N11316 1997 77 NA NA ERIKA 1997-09-03 15:00:00 TS 11.8850 -46.3000 main 1013 996 P_____________ AL071997 11.8850 -46.3000 TD 32 1004 -1 18 297
1997246N11316 1997 77 NA NA ERIKA 1997-09-03 18:00:00 TS 12.3000 -47.1000 35 1004 hurdat_atl main 999 988 O_____________ hurdat_atl AL071997 12.3000 -47.1000 TS 35 1004 0 17 299
1997246N11316 1997 77 NA NA ERIKA 1997-09-03 21:00:00 TS 12.6997 -47.8153 main 991 986 P_____________ AL071997 12.6997 -47.8153 TS 37 1003 0 16 300
1997246N11316 1997 77 NA NA ERIKA 1997-09-04 00:00:00 TS 13.1000 -48.5000 40 1002 hurdat_atl main 992 987 O_____________ hurdat_atl AL071997 13.1000 -48.5000 TS 40 1002 0 16 301
1997246N11316 1997 77 NA NA ERIKA 1997-09-04 03:00:00 TS 13.5070 -49.1703 main 999 999 P_____________ AL071997 13.5070 -49.1703 TS 45 1001 0 16 300
1997246N11316 1997 77 NA NA ERIKA 1997-09-04 06:00:00 TS 13.9000 -49.9000 50 1001 hurdat_atl main 1012 1003 O_____________ hurdat_atl AL071997 13.9000 -49.9000 TS 50 1001 0 17 296
1997246N11316 1997 77 NA NA ERIKA 1997-09-04 09:00:00 TS 14.2648 -50.7552 main 1011 1003 P_____________ AL071997 14.2648 -50.7552 TS 52 1000 0 19 292
1997246N11316 1997 77 NA NA ERIKA 1997-09-04 12:00:00 TS 14.6000 -51.7000 55 1000 hurdat_atl main 1012 1009 O_____________ hurdat_atl AL071997 14.6000 -51.7000 TS 55 1000 0 20 289
1997246N11316 1997 77 NA NA ERIKA 1997-09-04 15:00:00 TS 14.9226 -52.7150 main 1015 947 P_____________ AL071997 14.9226 -52.7150 TS 60 999 0 20 287
1997246N11316 1997 77 NA NA ERIKA 1997-09-04 18:00:00 TS 15.2000 -53.7000 65 999 hurdat_atl main 938 879 O_____________ hurdat_atl AL071997 15.2000 -53.7000 HU 65 999 1 19 285
1997246N11316 1997 77 NA NA ERIKA 1997-09-04 21:00:00 TS 15.4147 -54.5678 main 870 825 P_____________ AL071997 15.4147 -54.5678 HU 65 998 1 16 285
1997246N11316 1997 77 NA NA ERIKA 1997-09-05 00:00:00 TS 15.6000 -55.3000 65 998 hurdat_atl main 825 794 O_____________ hurdat_atl AL071997 15.6000 -55.3000 HU 65 998 1 13 287
1997246N11316 1997 77 NA NA ERIKA 1997-09-05 03:00:00 TS 15.7996 -55.8952 main 794 773 P_____________ AL071997 15.7996 -55.8952 HU 65 997 1 11 291
1997246N11316 1997 77 NA NA ERIKA 1997-09-05 06:00:00 TS 16.0000 -56.4000 65 997 hurdat_atl main 774 756 O_____________ hurdat_atl AL071997 16.0000 -56.4000 HU 65 997 1 11 291
1997246N11316 1997 77 NA NA ERIKA 1997-09-05 09:00:00 TS 16.1849 -56.9152 main 758 743 P_____________ AL071997 16.1849 -56.9152 HU 65 996 1 10 293
1997246N11316 1997 77 NA NA ERIKA 1997-09-05 12:00:00 TS 16.4000 -57.4000 65 996 hurdat_atl main 747 741 O_____________ hurdat_atl AL071997 16.4000 -57.4000 HU 65 996 1 10 299
1997246N11316 1997 77 NA NA ERIKA 1997-09-05 15:00:00 TS 16.6924 -57.8575 main 750 750 P_____________ AL071997 16.6924 -57.8575 HU 65 993 1 11 305
1997246N11316 1997 77 NA NA ERIKA 1997-09-05 18:00:00 TS 17.0000 -58.3000 65 990 hurdat_atl main 763 739 O_____________ hurdat_atl AL071997 17.0000 -58.3000 HU 65 990 1 10 303
1997246N11316 1997 77 NA NA ERIKA 1997-09-05 21:00:00 TS 17.2499 -58.7577 main 729 681 P_____________ AL071997 17.2499 -58.7577 HU 65 989 1 10 300
1997246N11316 1997 77 NA NA ERIKA 1997-09-06 00:00:00 TS 17.5000 -59.2000 65 988 hurdat_atl main 681 636 O_____________ hurdat_atl AL071997 17.5000 -59.2000 HU 65 988 1 10 304
1997246N11316 1997 77 NA NA ERIKA 1997-09-06 03:00:00 TS 17.7998 -59.6001 main 636 591 P_____________ AL071997 17.7998 -59.6001 HU 67 987 1 10 308
1997246N11316 1997 77 NA NA ERIKA 1997-09-06 06:00:00 TS 18.1000 -60.0000 70 986 hurdat_atl main 591 548 O_____________ hurdat_atl AL071997 18.1000 -60.0000 HU 70 986 1 10 305
1997246N11316 1997 77 NA NA ERIKA 1997-09-06 09:00:00 TS 18.3650 -60.4501 main 538 496 P_____________ AL071997 18.3650 -60.4501 HU 70 984 1 10 300
1997246N11316 1997 77 NA NA ERIKA 1997-09-06 12:00:00 TS 18.6000 -60.9000 70 982 hurdat_atl main 496 455 O_____________ hurdat_atl AL071997 18.6000 -60.9000 HU 70 982 1 9 298
1997246N11316 1997 77 NA NA ERIKA 1997-09-06 15:00:00 TS 18.8074 -61.3151 main 455 416 P_____________ AL071997 18.8074 -61.3151 HU 72 981 1 9 298
1997246N11316 1997 77 NA NA ERIKA 1997-09-06 18:00:00 TS 19.0000 -61.7000 75 980 hurdat_atl main 416 379 O_____________ hurdat_atl AL071997 19.0000 -61.7000 HU 75 980 1 8 299
1997246N11316 1997 77 NA NA ERIKA 1997-09-06 21:00:00 TS 19.2075 -62.0800 main 379 354 P_____________ AL071997 19.2075 -62.0800 HU 75 979 1 8 301
1997246N11316 1997 77 NA NA ERIKA 1997-09-07 00:00:00 TS 19.4000 -62.4000 75 979 hurdat_atl main 354 338 O_____________ hurdat_atl AL071997 19.4000 -62.4000 HU 75 979 1 6 303
1997246N11316 1997 77 NA NA ERIKA 1997-09-07 03:00:00 TS 19.5424 -62.6302 main 338 323 P_____________ AL071997 19.5424 -62.6302 HU 75 978 1 5 309
1997246N11316 1997 77 NA NA ERIKA 1997-09-07 06:00:00 TS 19.7000 -62.8000 75 978 hurdat_atl main 328 320 O_____________ hurdat_atl AL071997 19.7000 -62.8000 HU 75 978 1 5 321
1997246N11316 1997 77 NA NA ERIKA 1997-09-07 09:00:00 TS 19.9425 -62.9724 main 320 320 P_____________ AL071997 19.9425 -62.9724 HU 75 976 1 6 330
1997246N11316 1997 77 NA NA ERIKA 1997-09-07 12:00:00 TS 20.2000 -63.1000 75 975 hurdat_atl main 330 329 O_____________ hurdat_atl AL071997 20.2000 -63.1000 HU 75 975 1 5 337
1997246N11316 1997 77 NA NA ERIKA 1997-09-07 15:00:00 TS 20.3925 -63.1726 main 336 336 P_____________ AL071997 20.3925 -63.1726 HU 82 972 1 4 347
1997246N11316 1997 77 NA NA ERIKA 1997-09-07 18:00:00 TS 20.6000 -63.2000 90 970 hurdat_atl main 351 351 O_____________ hurdat_atl AL071997 20.6000 -63.2000 HU 90 970 2 5 355
1997246N11316 1997 77 NA NA ERIKA 1997-09-07 21:00:00 TS 20.8850 -63.2075 main 375 375 P_____________ AL071997 20.8850 -63.2075 HU 92 968 2 6 1
1997246N11316 1997 77 NA NA ERIKA 1997-09-08 00:00:00 TS 21.2000 -63.2000 95 966 hurdat_atl main 401 401 O_____________ hurdat_atl AL071997 21.2000 -63.2000 HU 95 966 2 6 358
1997246N11316 1997 77 NA NA ERIKA 1997-09-08 03:00:00 TS 21.4925 -63.2223 main 427 427 P_____________ AL071997 21.4925 -63.2223 HU 97 963 3 6 1
1997246N11316 1997 77 NA NA ERIKA 1997-09-08 06:00:00 TS 21.8000 -63.2000 100 961 hurdat_atl main 455 455 O_____________ hurdat_atl AL071997 21.8000 -63.2000 HU 100 961 3 7 11
1997246N11316 1997 77 NA NA ERIKA 1997-09-08 09:00:00 TS 22.1425 -63.0800 main 489 489 P_____________ AL071997 22.1425 -63.0800 HU 102 959 3 8 22
1997246N11316 1997 77 NA NA ERIKA 1997-09-08 12:00:00 TS 22.5000 -62.9000 105 957 hurdat_atl main 537 537 O_____________ hurdat_atl AL071997 22.5000 -62.9000 HU 105 957 3 8 26
1997246N11316 1997 77 NA NA ERIKA 1997-09-08 15:00:00 TS 22.8350 -62.7148 main 577 577 P_____________ AL071997 22.8350 -62.7148 HU 107 954 3 8 28
1997246N11316 1997 77 NA NA ERIKA 1997-09-08 18:00:00 TS 23.2000 -62.5000 110 952 hurdat_atl main 625 625 O_____________ hurdat_atl AL071997 23.2000 -62.5000 HU 110 952 3 9 28
1997246N11316 1997 77 NA NA ERIKA 1997-09-08 21:00:00 TS 23.6200 -62.2648 main 674 674 P_____________ AL071997 23.6200 -62.2648 HU 110 950 3 10 27
1997246N11316 1997 77 NA NA ERIKA 1997-09-09 00:00:00 TS 24.1000 -62.0000 110 948 hurdat_atl main 738 738 O_____________ hurdat_atl AL071997 24.1000 -62.0000 HU 110 948 3 11 27
1997246N11316 1997 77 NA NA ERIKA 1997-09-09 03:00:00 TS 24.6200 -61.7073 main 801 801 P_____________ AL071997 24.6200 -61.7073 HU 110 947 3 12 26
1997246N11316 1997 77 NA NA ERIKA 1997-09-09 06:00:00 TS 25.2000 -61.4000 110 946 hurdat_atl main 874 874 O_____________ hurdat_atl AL071997 25.2000 -61.4000 HU 110 946 3 13 24
1997246N11316 1997 77 NA NA ERIKA 1997-09-09 09:00:00 TS 25.8274 -61.0997 main 948 948 P_____________ AL071997 25.8274 -61.0997 HU 110 946 3 14 23
1997246N11316 1997 77 NA NA ERIKA 1997-09-09 12:00:00 TS 26.5000 -60.8000 110 947 hurdat_atl main 1030 1030 O_____________ hurdat_atl AL071997 26.5000 -60.8000 HU 110 947 3 15 21
1997246N11316 1997 77 NA NA ERIKA 1997-09-09 15:00:00 TS 27.1924 -60.4997 main 1113 1113 P_____________ AL071997 27.1924 -60.4997 HU 110 949 3 15 21
1997246N11316 1997 77 NA NA ERIKA 1997-09-09 18:00:00 TS 27.9000 -60.2000 110 951 hurdat_atl main 1196 1196 O_____________ hurdat_atl AL071997 27.9000 -60.2000 HU 110 951 3 15 20
1997246N11316 1997 77 NA NA ERIKA 1997-09-09 21:00:00 TS 28.5924 -59.9069 main 1278 1278 P_____________ AL071997 28.5924 -59.9069 HU 107 953 3 15 21
1997246N11316 1997 77 NA NA ERIKA 1997-09-10 00:00:00 TS 29.3000 -59.6000 105 955 hurdat_atl main 1361 1361 O_____________ hurdat_atl AL071997 29.3000 -59.6000 HU 105 955 3 16 21
1997246N11316 1997 77 NA NA ERIKA 1997-09-10 03:00:00 TS 30.0500 -59.2500 main 1458 1458 P_____________ AL071997 30.0500 -59.2500 HU 102 957 3 16 22
1997246N11316 1997 77 NA NA ERIKA 1997-09-10 06:00:00 TS 30.8000 -58.9000 100 960 hurdat_atl main 1522 1459 O_____________ hurdat_atl AL071997 30.8000 -58.9000 HU 100 960 3 16 21
1997246N11316 1997 77 NA NA ERIKA 1997-09-10 09:00:00 TS 31.5072 -58.6065 main 1459 1398 P_____________ AL071997 31.5072 -58.6065 HU 97 962 3 15 20
1997246N11316 1997 77 NA NA ERIKA 1997-09-10 12:00:00 TS 32.2000 -58.3000 95 965 hurdat_atl main 1398 1339 O_____________ hurdat_atl AL071997 32.2000 -58.3000 HU 95 965 2 15 22
1997246N11316 1997 77 NA NA ERIKA 1997-09-10 15:00:00 TS 32.9148 -57.9369 main 1343 1291 P_____________ AL071997 32.9148 -57.9369 HU 92 967 2 16 26
1997246N11316 1997 77 NA NA ERIKA 1997-09-10 18:00:00 TS 33.6000 -57.5000 90 970 hurdat_atl main 1291 1257 O_____________ hurdat_atl AL071997 33.6000 -57.5000 HU 90 970 2 15 31
1997246N11316 1997 77 NA NA ERIKA 1997-09-10 21:00:00 TS 34.2373 -56.9871 main 1257 1223 P_____________ AL071997 34.2373 -56.9871 HU 85 971 2 15 37
1997246N11316 1997 77 NA NA ERIKA 1997-09-11 00:00:00 TS 34.8000 -56.4000 80 973 hurdat_atl main 1223 1188 O_____________ hurdat_atl AL071997 34.8000 -56.4000 HU 80 973 1 14 43
1997246N11316 1997 77 NA NA ERIKA 1997-09-11 03:00:00 TS 35.2871 -55.7792 main 1188 1167 P_____________ AL071997 35.2871 -55.7792 HU 77 975 1 14 50
1997246N11316 1997 77 NA NA ERIKA 1997-09-11 06:00:00 TS 35.7000 -55.1000 75 977 hurdat_atl main 1171 1159 O_____________ hurdat_atl AL071997 35.7000 -55.1000 HU 75 977 1 14 56
1997246N11316 1997 77 NA NA ERIKA 1997-09-11 09:00:00 TS 36.0645 -54.3789 main 1157 1134 P_____________ AL071997 36.0645 -54.3789 HU 72 980 1 14 60
1997246N11316 1997 77 NA NA ERIKA 1997-09-11 12:00:00 TS 36.4000 -53.6000 70 984 hurdat_atl main 1134 1101 O_____________ hurdat_atl AL071997 36.4000 -53.6000 HU 70 984 1 15 61
1997246N11316 1997 77 NA NA ERIKA 1997-09-11 15:00:00 TS 36.7642 -52.7872 main 1090 1061 P_____________ AL071997 36.7642 -52.7872 HU 67 986 1 15 63
1997246N11316 1997 77 NA NA ERIKA 1997-09-11 18:00:00 TS 37.1000 -51.9000 65 988 hurdat_atl main 1062 1039 O_____________ hurdat_atl AL071997 37.1000 -51.9000 HU 65 988 1 16 68
1997246N11316 1997 77 NA NA ERIKA 1997-09-11 21:00:00 TS 37.3724 -50.9144 main 1040 1032 P_____________ AL071997 37.3724 -50.9144 HU 62 989 0 17 73
1997246N11316 1997 77 NA NA ERIKA 1997-09-12 00:00:00 TS 37.6000 -49.9000 60 990 hurdat_atl main 1036 1032 O_____________ hurdat_atl AL071997 37.6000 -49.9000 TS 60 990 0 16 75
1997246N11316 1997 77 NA NA ERIKA 1997-09-12 03:00:00 TS 37.7992 -48.9339 main 1040 1035 P_____________ AL071997 37.7992 -48.9339 TS 57 992 0 16 75
1997246N11316 1997 77 NA NA ERIKA 1997-09-12 06:00:00 TS 38.0000 -48.0000 55 994 hurdat_atl main 1046 1043 O_____________ hurdat_atl AL071997 38.0000 -48.0000 TS 55 994 0 15 73
1997246N11316 1997 77 NA NA ERIKA 1997-09-12 09:00:00 TS 38.2499 -47.0553 main 1058 1052 P_____________ AL071997 38.2499 -47.0553 TS 55 994 0 15 71
1997246N11316 1997 77 NA NA ERIKA 1997-09-12 12:00:00 TS 38.5000 -46.2000 55 995 hurdat_atl main 1065 1064 O_____________ hurdat_atl AL071997 38.5000 -46.2000 TS 55 995 0 13 69
1997246N11316 1997 77 NA NA ERIKA 1997-09-12 15:00:00 TS 38.7294 -45.4823 main 1078 1073 P_____________ AL071997 38.7294 -45.4823 TS 52 995 0 11 68
1997246N11316 1997 77 NA NA ERIKA 1997-09-12 18:00:00 TS 38.9000 -44.9000 50 995 hurdat_atl main 1089 1089 O_____________ hurdat_atl AL071997 38.9000 -44.9000 TS 50 995 0 9 73
1997246N11316 1997 77 NA NA ERIKA 1997-09-12 21:00:00 TS 38.9870 -44.4121 main 1105 1105 P_____________ AL071997 38.9870 -44.4121 TS 47 995 0 7 82
1997246N11316 1997 77 NA NA ERIKA 1997-09-13 00:00:00 TS 39.0000 -44.0000 45 995 hurdat_atl main 1127 1127 O_____________ hurdat_atl AL071997 39.0000 -44.0000 TS 45 995 0 6 90
1997246N11316 1997 77 NA NA ERIKA 1997-09-13 03:00:00 TS 38.9872 -43.6002 main 1148 1148 P_____________ AL071997 38.9872 -43.6002 TS 45 995 0 6 99
1997246N11316 1997 77 NA NA ERIKA 1997-09-13 06:00:00 TS 38.9000 -43.2000 45 995 hurdat_atl main 1179 1179 O_____________ hurdat_atl AL071997 38.9000 -43.2000 TS 45 995 0 7 112
1997246N11316 1997 77 NA NA ERIKA 1997-09-13 09:00:00 TS 38.7223 -42.7649 main 1218 1218 P_____________ AL071997 38.7223 -42.7649 TS 45 995 0 8 120
1997246N11316 1997 77 NA NA ERIKA 1997-09-13 12:00:00 TS 38.5000 -42.3000 45 995 hurdat_atl main 1263 1263 O_____________ hurdat_atl AL071997 38.5000 -42.3000 TS 45 995 0 9 120
1997246N11316 1997 77 NA NA ERIKA 1997-09-13 15:00:00 TS 38.2923 -41.8151 main 1309 1309 P_____________ AL071997 38.2923 -41.8151 TS 45 995 0 9 117
1997246N11316 1997 77 NA NA ERIKA 1997-09-13 18:00:00 TS 38.1000 -41.3000 45 995 hurdat_atl main 1354 1354 O_____________ hurdat_atl AL071997 38.1000 -41.3000 TS 45 995 0 9 113
1997246N11316 1997 77 NA NA ERIKA 1997-09-13 21:00:00 TS 37.9348 -40.7577 main 1400 1400 P_____________ AL071997 37.9348 -40.7577 TS 45 995 0 9 109
1997246N11316 1997 77 NA NA ERIKA 1997-09-14 00:00:00 TS 37.8000 -40.2000 45 995 hurdat_atl main 1444 1444 O_____________ hurdat_atl AL071997 37.8000 -40.2000 TS 45 995 0 9 107
1997246N11316 1997 77 NA NA ERIKA 1997-09-14 03:00:00 TS 37.6771 -39.6575 main 1482 1482 P_____________ AL071997 37.6771 -39.6575 TS 47 993 0 9 103
1997246N11316 1997 77 NA NA ERIKA 1997-09-14 06:00:00 TS 37.6000 -39.1000 50 992 hurdat_atl main 1527 1527 O_____________ hurdat_atl AL071997 37.6000 -39.1000 TS 50 992 0 9 97
1997246N11316 1997 77 NA NA ERIKA 1997-09-14 09:00:00 TS 37.5696 -38.5224 main 1564 1564 P_____________ AL071997 37.5696 -38.5224 TS 52 990 0 9 90
1997246N11316 1997 77 NA NA ERIKA 1997-09-14 12:00:00 TS 37.6000 -37.9000 55 989 hurdat_atl main 1602 1602 O_____________ hurdat_atl AL071997 37.6000 -37.9000 TS 55 989 0 10 84
1997246N11316 1997 77 NA NA ERIKA 1997-09-14 15:00:00 TS 37.6697 -37.2223 main 1639 1639 P_____________ AL071997 37.6697 -37.2223 TS 55 988 0 11 80
1997246N11316 1997 77 NA NA ERIKA 1997-09-14 18:00:00 TS 37.8000 -36.5000 55 987 hurdat_atl main 1676 1676 O_____________ hurdat_atl AL071997 37.8000 -36.5000 TS 55 987 0 12 76
1997246N11316 1997 77 NA NA ERIKA 1997-09-14 21:00:00 TS 37.9620 -35.7643 main 1708 1708 P_____________ AL071997 37.9620 -35.7643 TS 57 985 0 12 71
1997246N11316 1997 77 NA NA ERIKA 1997-09-15 00:00:00 TS 38.2000 -35.0000 60 984 hurdat_atl main 1747 1747 O_____________ hurdat_atl AL071997 38.2000 -35.0000 TS 60 984 0 13 65
1997246N11316 1997 77 NA NA ERIKA 1997-09-15 03:00:00 TS 38.5195 -34.2146 main 1781 1781 P_____________ AL071997 38.5195 -34.2146 TS 57 984 0 14 61
1997246N11316 1997 77 NA NA ERIKA 1997-09-15 06:00:00 TS 38.9000 -33.4000 55 984 hurdat_atl main 1811 1811 O_____________ hurdat_atl AL071997 38.9000 -33.4000 TS 55 984 0 15 60
1997246N11316 1997 77 NA NA ERIKA 1997-09-15 09:00:00 TS 39.2619 -32.5631 main 1842 1842 P_____________ AL071997 39.2619 -32.5631 TS 52 983 0 15 59
1997246N11316 1997 77 NA NA ERIKA 1997-09-15 12:00:00 TS 39.7000 -31.7000 50 983 hurdat_atl main 1864 1803 O_____________ hurdat_atl AL071997 39.7000 -31.7000 TS 50 983 0 17 54
1997246N11316 1997 77 NA NA ERIKA 1997-09-15 15:00:00 TS 40.2622 -30.7996 main 1799 1709 P_____________ AL071997 40.2622 -30.7996 TS 50 983 0 18 49
1997246N11316 1997 77 NA NA ERIKA 1997-09-15 18:00:00 TS 40.9000 -29.9000 50 984 hurdat_atl main 1709 1628 O_____________ hurdat_atl AL071997 40.9000 -29.9000 TS 50 984 0 18 46
1997246N11316 1997 77 NA NA ERIKA 1997-09-15 21:00:00 TS 41.5417 -29.0409 main 1620 1540 P_____________ AL071997 41.5417 -29.0409 TS 50 984 0 18 44
1997246N11316 1997 77 NA NA ERIKA 1997-09-16 00:00:00 ET 42.2000 -28.2000 50 985 hurdat_atl main 1540 1466 O_____________ hurdat_atl AL071997 42.2000 -28.2000 EX 50 985 -4 18 44
1997246N11316 1997 77 NA NA ERIKA 1997-09-16 03:00:00 ET 42.8339 -27.3693 main 1466 1394 P_____________ AL071997 42.8339 -27.3693 EX 50 986 -4 18 44
1997246N11316 1997 77 NA NA ERIKA 1997-09-16 06:00:00 ET 43.5000 -26.5000 50 987 hurdat_atl main 1386 1312 O_____________ hurdat_atl AL071997 43.5000 -26.5000 EX 50 987 -4 20 43
1997246N11316 1997 77 NA NA ERIKA 1997-09-16 09:00:00 ET 44.2722 -25.5234 main 1304 1236 P_____________ AL071997 44.2722 -25.5234 EX 50 988 -4 21 44
1997246N11316 1997 77 NA NA ERIKA 1997-09-16 12:00:00 ET 45.0000 -24.5000 50 989 hurdat_atl main 1229 1158 O_____________ hurdat_atl AL071997 45.0000 -24.5000 EX 50 989 -4 19 49
1997246N11316 1997 77 NA NA ERIKA 1997-09-16 15:00:00 ET 45.5524 -23.4605 main 1160 1088 P_____________ AL071997 45.5524 -23.4605 EX 52 990 -4 17 54
1997246N11316 1997 77 NA NA ERIKA 1997-09-16 18:00:00 ET 46.0000 -22.5000 55 991 hurdat_atl main 1088 1012 O_____________ hurdat_atl AL071997 46.0000 -22.5000 EX 55 991 -4 15 54
1997246N11316 1997 77 NA NA ERIKA 1997-09-16 21:00:00 ET 46.4593 -21.6746 main 1005 943 P_____________ AL071997 46.4593 -21.6746 EX 57 992 -4 13 52
1997246N11316 1997 77 NA NA ERIKA 1997-09-17 00:00:00 ET 46.8000 -21.0000 60 993 hurdat_atl main 943 900 O_____________ hurdat_atl AL071997 46.8000 -21.0000 EX 60 993 -4 10 57
1997246N11316 1997 77 NA NA ERIKA 1997-09-17 03:00:00 ET 46.9967 -20.4619 main 900 871 P_____________ AL071997 46.9967 -20.4619 EX 60 993 -4 7 74
1997246N11316 1997 77 NA NA ERIKA 1997-09-17 06:00:00 ET 47.0000 -20.0000 60 994 hurdat_atl main 871 849 O_____________ hurdat_atl AL071997 47.0000 -20.0000 EX 60 994 -4 8 104
1997246N11316 1997 77 NA NA ERIKA 1997-09-17 09:00:00 ET 46.8028 -19.3468 main 845 842 P_____________ AL071997 46.8028 -19.3468 EX 60 993 -4 8 126
1997246N11316 1997 77 NA NA ERIKA 1997-09-17 12:00:00 ET 46.5000 -19.0000 60 992 hurdat_atl main 852 851 O_____________ hurdat_atl AL071997 46.5000 -19.0000 EX 60 992 -4 7 186
1997246N11316 1997 77 NA NA ERIKA 1997-09-17 15:00:00 ET 46.1236 -19.4436 main 867 867 P_____________ AL071997 46.1236 -19.4436 EX 57 993 -4 9 234
1997246N11316 1997 77 NA NA ERIKA 1997-09-17 18:00:00 ET 46.0000 -20.0000 55 994 hurdat_atl main 907 907 O_____________ hurdat_atl AL071997 46.0000 -20.0000 EX 55 994 -4 6 313
1997246N11316 1997 77 NA NA ERIKA 1997-09-17 21:00:00 ET 46.5020 -20.0344 main 907 845 P_____________ AL071997 46.5020 -20.0344 EX 52 995 -4 12 7
1997246N11316 1997 77 NA NA ERIKA 1997-09-18 00:00:00 ET 47.2000 -19.8000 50 996 hurdat_atl main 845 800 O_____________ hurdat_atl AL071997 47.2000 -19.8000 EX 50 996 -4 12 19
1997246N11316 1997 77 NA NA ERIKA 1997-09-18 03:00:00 ET 47.6525 -19.4604 main 793 743 P_____________ AL071997 47.6525 -19.4604 EX 47 997 -4 10 34
1997246N11316 1997 77 NA NA ERIKA 1997-09-18 06:00:00 ET 48.0000 -19.0000 45 998 hurdat_atl main 743 693 O_____________ hurdat_atl AL071997 48.0000 -19.0000 EX 45 998 -4 9 46
1997246N11316 1997 77 NA NA ERIKA 1997-09-18 09:00:00 ET 48.2879 -18.4775 main 693 651 P_____________ AL071997 48.2879 -18.4775 EX 42 999 -4 8 53
1997246N11316 1997 77 NA NA ERIKA 1997-09-18 12:00:00 ET 48.5000 -18.0000 40 1000 hurdat_atl main 651 620 O_____________ hurdat_atl AL071997 48.5000 -18.0000 EX 40 1000 -4 6 52
1997246N11316 1997 77 NA NA ERIKA 1997-09-18 15:00:00 ET 48.6796 -17.7119 main 620 601 P_____________ AL071997 48.6796 -17.7119 EX 40 1000 -4 4 48
1997246N11316 1997 77 NA NA ERIKA 1997-09-18 18:00:00 ET 48.8000 -17.5000 40 1000 hurdat_atl main 601 583 O_____________ hurdat_atl AL071997 48.8000 -17.5000 EX 40 1000 -4 3 57
1997246N11316 1997 77 NA NA ERIKA 1997-09-18 21:00:00 ET 48.8723 -17.2723 main 583 565 P_____________ AL071997 48.8723 -17.2723 EX 37 1000 -4 3 73
1997246N11316 1997 77 NA NA ERIKA 1997-09-19 00:00:00 ET 48.9000 -17.0000 35 1000 hurdat_atl main 565 548 O_____________ hurdat_atl AL071997 48.9000 -17.0000 EX 35 1000 -4 4 86
1997246N11316 1997 77 NA NA ERIKA 1997-09-19 03:00:00 ET 48.9000 -16.6297 main 542 519 P_____________ AL071997 48.9000 -16.6297 EX 32 1000 -4 5 90
1997246N11316 1997 77 NA NA ERIKA 1997-09-19 06:00:00 ET 48.9000 -16.2000 30 1000 hurdat_atl main 519 496 O_____________ hurdat_atl AL071997 48.9000 -16.2000 EX 30 1000 -4 6 85
1997246N11316 1997 77 NA NA ERIKA 1997-09-19 09:00:00 ET 48.9495 -15.7878 main 496 461 P_____________ AL071997 48.9495 -15.7878 EX 30 1002 -4 6 80
1997246N11316 1997 77 NA NA ERIKA 1997-09-19 12:00:00 ET 49.0000 -15.3000 30 1005 hurdat_atl main 461 429 O_____________ hurdat_atl AL071997 49.0000 -15.3000 EX 30 1005 -4 7 85
1997246N11316 1997 77 NA NA ERIKA 1997-09-19 15:00:00 ET 49.0136 -14.6872 main 429 394 P_____________ AL071997 49.0136 -14.6872 EX 27 1007 -4 8 90
1997246N11316 1997 77 NA NA ERIKA 1997-09-19 18:00:00 ET 49.0000 -14.0000 25 1009 hurdat_atl main 394 O_____________ hurdat_atl AL071997 49.0000 -14.0000 EX 25 1009 -4 9 92

IBTrACS Databaseについて

本データベースは、米国NOAAが公開する1842年以降の世界の熱帯低気圧のベストトラックデータアーカイブInternational Best Track Archive for Climate Stewardship (IBTrACS)を、ウェブで閲覧しやすい形式に変換したものです。

最終更新日:2021-12-01